createdAt,value
2019-02-22T00:00:21.587Z,7.95
2019-02-22T00:02:53.809Z,7.96
2019-02-22T00:05:24.387Z,7.94
2019-02-22T00:07:55.001Z,7.91
2019-02-22T00:10:25.733Z,7.88
2019-02-22T00:12:56.345Z,7.88
2019-02-22T00:15:28.008Z,7.86
2019-02-22T00:17:58.681Z,7.81
2019-02-22T00:20:29.338Z,7.80
2019-02-22T00:22:59.737Z,7.76
2019-02-22T00:25:30.179Z,7.75
2019-02-22T00:28:00.574Z,7.72
2019-02-22T00:30:31.027Z,7.72
2019-02-22T00:33:01.424Z,7.70
2019-02-22T00:35:31.831Z,7.69
2019-02-22T00:38:02.122Z,7.68
2019-02-22T00:40:32.495Z,7.65
2019-02-22T00:43:02.816Z,7.64
2019-02-22T00:45:33.253Z,7.62
2019-02-22T00:48:03.726Z,7.59
2019-02-22T00:50:34.219Z,7.55
2019-02-22T00:53:04.544Z,7.53
2019-02-22T00:55:34.913Z,7.41
2019-02-22T00:58:05.318Z,7.38
2019-02-22T01:00:35.684Z,7.32
2019-02-22T01:03:06.008Z,7.24
2019-02-22T01:05:36.461Z,7.23
2019-02-22T01:08:06.854Z,7.21
2019-02-22T01:10:37.224Z,7.20
2019-02-22T01:13:07.554Z,7.06
2019-02-22T01:15:37.915Z,6.85
2019-02-22T01:18:08.305Z,6.68
2019-02-22T01:20:38.683Z,6.51
2019-02-22T01:23:09.012Z,6.35
2019-02-22T01:25:39.386Z,6.12
2019-02-22T01:28:09.710Z,5.96
2019-02-22T01:30:40.081Z,5.76
2019-02-22T01:33:10.474Z,5.67
2019-02-22T01:35:40.837Z,5.60
2019-02-22T01:38:11.167Z,5.54
2019-02-22T01:40:43.941Z,5.35
2019-02-22T01:43:13.630Z,5.30
2019-02-22T01:45:44.005Z,5.16
2019-02-22T01:48:14.403Z,5.00
2019-02-22T01:50:45.047Z,4.78
2019-02-22T01:53:15.441Z,4.52
2019-02-22T01:55:45.815Z,4.41
2019-02-22T01:58:16.203Z,4.32
2019-02-22T02:00:46.575Z,4.17
2019-02-22T02:03:16.909Z,4.11
2019-02-22T02:05:47.569Z,4.06
2019-02-22T02:08:18.170Z,3.96
2019-02-22T02:10:54.021Z,3.91
2019-02-22T02:13:21.040Z,3.88
2019-02-22T02:15:51.496Z,3.88
2019-02-22T02:18:22.963Z,3.85
2019-02-22T02:20:53.459Z,3.79
2019-02-22T02:23:23.766Z,3.66
2019-02-22T02:25:54.147Z,3.64
2019-02-22T02:28:24.475Z,3.60
2019-02-22T02:30:54.845Z,3.62
2019-02-22T02:33:25.171Z,3.60
2019-02-22T02:35:55.538Z,3.56
2019-02-22T02:38:25.939Z,3.56
2019-02-22T02:41:08.151Z,3.50
2019-02-22T02:43:28.342Z,3.49
2019-02-22T02:45:58.725Z,3.50
2019-02-22T02:48:29.048Z,3.50
2019-02-22T02:50:59.781Z,3.41
2019-02-22T02:53:30.176Z,3.38
2019-02-22T02:56:01.626Z,3.36
2019-02-22T02:58:32.015Z,3.37
2019-02-22T03:01:02.453Z,3.34
2019-02-22T03:03:32.916Z,3.26
2019-02-22T03:06:06.010Z,3.20
2019-02-22T03:08:36.413Z,3.13
2019-02-22T03:11:06.772Z,3.10
2019-02-22T03:13:37.101Z,3.04
2019-02-22T03:16:07.468Z,3.03
2019-02-22T03:18:37.798Z,3.06
2019-02-22T03:21:08.174Z,3.02
2019-02-22T03:23:38.487Z,3.00
2019-02-22T03:26:08.886Z,3.01
2019-02-22T03:28:39.254Z,3.03
2019-02-22T03:31:09.652Z,3.01
2019-02-22T03:33:39.972Z,3.03
2019-02-22T03:36:10.397Z,3.05
2019-02-22T03:38:40.795Z,2.97
2019-02-22T03:41:11.181Z,2.98
2019-02-22T03:43:41.489Z,3.02
2019-02-22T03:46:11.898Z,2.93
2019-02-22T03:48:42.230Z,2.86
2019-02-22T03:51:12.781Z,2.84
2019-02-22T03:53:44.812Z,2.81
2019-02-22T03:56:15.257Z,2.80
2019-02-22T03:58:46.758Z,2.76
2019-02-22T04:01:17.199Z,2.74
2019-02-22T04:03:47.600Z,2.67
2019-02-22T04:06:17.988Z,2.60
2019-02-22T04:08:48.313Z,2.56
2019-02-22T04:11:18.759Z,2.55
2019-02-22T04:13:49.081Z,2.59
2019-02-22T04:16:19.514Z,2.54
2019-02-22T04:18:49.909Z,2.50
2019-02-22T04:21:20.288Z,2.51
2019-02-22T04:23:50.649Z,2.50
2019-02-22T04:26:20.986Z,2.45
2019-02-22T04:28:52.955Z,2.42
2019-02-22T04:31:24.403Z,2.33
2019-02-22T04:33:54.737Z,2.30
2019-02-22T04:36:25.183Z,2.26
2019-02-22T04:38:55.499Z,2.23
2019-02-22T04:41:25.867Z,2.23
2019-02-22T04:43:56.266Z,2.20
2019-02-22T04:46:26.643Z,2.16
2019-02-22T04:48:56.968Z,2.13
2019-02-22T04:51:27.929Z,2.12
2019-02-22T04:53:58.229Z,2.07
2019-02-22T04:56:28.590Z,1.97
2019-02-22T04:58:58.982Z,1.94
2019-02-22T05:01:29.353Z,1.90
2019-02-22T05:03:59.677Z,1.87
2019-02-22T05:06:30.241Z,1.89
2019-02-22T05:09:00.580Z,1.87
2019-02-22T05:11:32.549Z,1.82
2019-02-22T05:14:03.218Z,1.77
2019-02-22T05:16:33.595Z,1.76
2019-02-22T05:19:03.920Z,1.77
2019-02-22T05:21:34.297Z,1.70
2019-02-22T05:24:04.623Z,1.61
2019-02-22T05:26:35.136Z,1.56
2019-02-22T05:29:05.538Z,1.59
2019-02-22T05:31:36.003Z,1.58
2019-02-22T05:34:06.332Z,1.60
2019-02-22T05:36:36.854Z,1.61
2019-02-22T05:39:18.702Z,1.58
2019-02-22T05:41:40.294Z,1.58
2019-02-22T05:44:10.704Z,1.46
2019-02-22T05:46:41.082Z,1.49
2019-02-22T05:49:11.490Z,1.50
2019-02-22T05:51:42.195Z,1.51
2019-02-22T05:54:12.595Z,1.38
2019-02-22T05:56:42.973Z,1.25
2019-02-22T05:59:13.371Z,1.07
2019-02-22T06:01:43.872Z,0.99
2019-02-22T06:04:14.214Z,0.94
2019-02-22T06:06:44.738Z,0.94
2019-02-22T06:09:15.283Z,0.95
2019-02-22T06:11:45.724Z,0.89
2019-02-22T06:14:16.077Z,0.83
2019-02-22T06:16:46.444Z,0.89
2019-02-22T06:19:16.770Z,0.87
2019-02-22T06:21:47.153Z,0.82
2019-02-22T06:24:17.514Z,0.73
2019-02-22T06:26:48.139Z,0.64
2019-02-22T06:29:18.551Z,0.60
2019-02-22T06:31:48.945Z,0.56
2019-02-22T06:34:19.326Z,0.50
2019-02-22T06:37:01.345Z,0.53
2019-02-22T06:39:21.872Z,0.67
2019-02-22T06:41:52.353Z,0.80
2019-02-22T06:44:22.835Z,0.94
2019-02-22T06:46:53.209Z,1.07
2019-02-22T06:49:23.543Z,1.13
2019-02-22T06:51:54.070Z,1.17
2019-02-22T06:54:24.402Z,1.06
2019-02-22T06:56:54.772Z,1.04
2019-02-22T06:59:25.112Z,1.02
2019-02-22T07:01:55.467Z,0.79
2019-02-22T07:04:25.795Z,0.77
2019-02-22T07:06:56.230Z,0.70
2019-02-22T07:09:26.559Z,0.78
2019-02-22T07:12:04.347Z,0.76
2019-02-22T07:14:34.676Z,0.70
2019-02-22T07:17:05.052Z,0.67
2019-02-22T07:19:35.389Z,0.64
2019-02-22T07:22:06.703Z,0.60
2019-02-22T07:24:37.035Z,0.47
2019-02-22T07:27:07.420Z,0.35
2019-02-22T07:29:37.719Z,0.28
2019-02-22T07:32:08.086Z,0.31
2019-02-22T07:34:38.422Z,0.33
2019-02-22T07:37:08.809Z,0.28
2019-02-22T07:39:39.208Z,0.36
2019-02-22T07:42:09.666Z,0.42
2019-02-22T07:44:39.997Z,0.48
2019-02-22T07:47:11.892Z,0.59
2019-02-22T07:49:42.228Z,0.66
2019-02-22T07:52:12.795Z,0.59
2019-02-22T07:54:43.114Z,0.66
2019-02-22T07:57:13.510Z,0.84
2019-02-22T07:59:43.826Z,1.01
2019-02-22T08:02:14.279Z,1.13
2019-02-22T08:04:45.492Z,1.01
2019-02-22T08:07:16.055Z,0.92
2019-02-22T08:09:46.376Z,0.86
2019-02-22T08:12:16.752Z,0.84
2019-02-22T08:14:47.135Z,0.83
2019-02-22T08:17:17.573Z,0.90
2019-02-22T08:19:47.972Z,0.88
2019-02-22T08:22:20.659Z,0.78
2019-02-22T08:24:50.451Z,0.73
2019-02-22T08:27:20.819Z,0.70
2019-02-22T08:29:52.283Z,0.64
2019-02-22T08:32:22.738Z,0.62
2019-02-22T08:34:53.062Z,0.55
2019-02-22T08:37:23.508Z,0.54
2019-02-22T08:39:58.580Z,0.54
2019-02-22T08:42:27.054Z,0.56
2019-02-22T08:44:57.376Z,0.59
2019-02-22T08:47:27.815Z,0.67
2019-02-22T08:49:58.139Z,0.74
2019-02-22T08:52:28.752Z,0.71
2019-02-22T08:54:59.142Z,0.76
2019-02-22T08:57:29.582Z,0.83
2019-02-22T08:59:59.984Z,0.82
2019-02-22T09:02:30.424Z,0.85
2019-02-22T09:05:00.743Z,0.82
2019-02-22T09:07:31.183Z,0.80
2019-02-22T09:10:01.649Z,0.81
2019-02-22T09:12:32.089Z,0.79
2019-02-22T09:15:02.557Z,0.79
2019-02-22T09:17:33.000Z,0.84
2019-02-22T09:20:03.600Z,0.85
2019-02-22T09:22:35.584Z,0.79
2019-02-22T09:25:06.520Z,0.77
2019-02-22T09:27:37.041Z,0.79
2019-02-22T09:30:10.414Z,0.80
2019-02-22T09:32:40.854Z,0.83
2019-02-22T09:35:11.540Z,0.83
2019-02-22T09:37:41.987Z,0.81
2019-02-22T09:40:14.633Z,0.90
2019-02-22T09:42:44.832Z,0.90
2019-02-22T09:45:15.178Z,0.94
2019-02-22T09:47:45.557Z,1.03
2019-02-22T09:50:16.640Z,1.02
2019-02-22T09:52:47.372Z,1.02
2019-02-22T09:55:17.692Z,0.99
2019-02-22T09:57:48.129Z,1.01
2019-02-22T10:00:18.452Z,1.03
2019-02-22T10:02:48.819Z,1.10
2019-02-22T10:05:19.167Z,1.10
2019-02-22T10:07:49.534Z,1.15
2019-02-22T10:10:19.852Z,1.20
2019-02-22T10:12:50.216Z,1.15
2019-02-22T10:15:20.673Z,1.13
2019-02-22T10:17:51.212Z,1.13
2019-02-22T10:20:21.550Z,1.12
2019-02-22T10:22:52.051Z,1.24
2019-02-22T10:25:22.378Z,1.32
2019-02-22T10:27:52.736Z,1.27
2019-02-22T10:30:23.072Z,1.33
2019-02-22T10:32:53.655Z,1.33
2019-02-22T10:35:24.049Z,1.28
2019-02-22T10:37:54.425Z,1.33
2019-02-22T10:40:24.919Z,1.31
2019-02-22T10:42:55.345Z,1.32
2019-02-22T10:45:25.742Z,1.39
2019-02-22T10:47:56.116Z,1.39
2019-02-22T10:50:26.705Z,1.42
2019-02-22T10:53:02.119Z,1.39
2019-02-22T10:55:29.489Z,1.39
2019-02-22T10:57:59.858Z,1.37
2019-02-22T11:00:30.407Z,1.34
2019-02-22T11:03:00.862Z,1.38
2019-02-22T11:05:31.249Z,1.50
2019-02-22T11:08:01.925Z,1.48
2019-02-22T11:10:32.313Z,1.52
2019-02-22T11:13:02.680Z,1.46
2019-02-22T11:15:33.176Z,1.51
2019-02-22T11:18:03.564Z,1.56
2019-02-22T11:20:33.941Z,1.55
2019-02-22T11:23:04.375Z,1.46
2019-02-22T11:25:34.782Z,1.58
2019-02-22T11:28:05.148Z,1.59
2019-02-22T11:30:36.612Z,1.59
2019-02-22T11:33:06.994Z,1.61
2019-02-22T11:35:37.336Z,1.68
2019-02-22T11:38:07.821Z,1.70
2019-02-22T11:40:38.211Z,1.67
2019-02-22T11:43:08.650Z,1.78
2019-02-22T11:45:39.044Z,1.73
2019-02-22T11:48:09.718Z,1.72
2019-02-22T11:50:40.087Z,1.71
2019-02-22T11:53:10.680Z,1.70
2019-02-22T11:55:41.522Z,1.66
2019-02-22T11:58:11.961Z,1.74
2019-02-22T12:00:42.472Z,1.86
2019-02-22T12:03:24.213Z,2.01
2019-02-22T12:05:45.039Z,2.15
2019-02-22T12:08:15.544Z,2.23
2019-02-22T12:10:45.937Z,2.25
2019-02-22T12:13:16.466Z,2.26
2019-02-22T12:15:46.861Z,2.29
2019-02-22T12:18:17.297Z,2.61
2019-02-22T12:20:47.705Z,6.28
2019-02-22T12:23:18.102Z,8.40
2019-02-22T12:25:48.411Z,7.57
2019-02-22T12:28:19.927Z,7.22
2019-02-22T12:30:50.734Z,6.23
2019-02-22T12:33:21.184Z,5.83
2019-02-22T12:35:51.571Z,6.56
2019-02-22T12:38:22.022Z,8.45
2019-02-22T12:40:52.361Z,8.00
2019-02-22T12:43:22.830Z,5.20
2019-02-22T12:45:53.178Z,3.98
2019-02-22T12:48:23.540Z,3.83
2019-02-22T12:50:53.941Z,4.90
2019-02-22T12:53:24.582Z,8.43
2019-02-22T12:55:54.933Z,9.65
2019-02-22T12:58:25.317Z,11.09
2019-02-22T13:00:55.653Z,11.73
2019-02-22T13:03:26.115Z,11.38
2019-02-22T13:05:56.659Z,10.38
2019-02-22T13:08:27.111Z,8.58
2019-02-22T13:17:42.083Z,5.94
2019-02-22T13:20:12.456Z,8.04
2019-02-22T13:22:42.866Z,10.02
2019-02-22T13:25:13.317Z,11.98
2019-02-22T13:27:43.721Z,12.98
2019-02-22T13:30:15.590Z,12.76
2019-02-22T13:32:46.028Z,10.81
2019-02-22T13:35:16.551Z,8.63
2019-02-22T13:37:47.218Z,7.03
2019-02-22T13:40:18.465Z,5.76
2019-02-22T13:42:48.794Z,5.00
2019-02-22T13:45:26.677Z,4.34
2019-02-22T13:47:51.348Z,3.96
2019-02-22T13:50:21.947Z,3.74
2019-02-22T13:52:52.349Z,3.57
2019-02-22T13:55:23.056Z,3.54
2019-02-22T13:57:53.464Z,3.56
2019-02-22T14:00:23.842Z,3.60
2019-02-22T14:02:54.183Z,3.56
2019-02-22T14:05:24.616Z,3.41
2019-02-22T14:07:56.136Z,3.40
2019-02-22T14:10:26.860Z,3.31
2019-02-22T14:12:57.258Z,3.12
2019-02-22T14:15:37.413Z,3.13
2019-02-22T14:17:59.878Z,3.06
2019-02-22T14:20:30.309Z,2.96
2019-02-22T14:23:03.401Z,2.99
2019-02-22T14:25:32.916Z,2.98
2019-02-22T14:28:03.317Z,3.03
2019-02-22T14:30:33.800Z,2.95
2019-02-22T14:33:04.200Z,3.24
2019-02-22T14:35:34.675Z,3.22
2019-02-22T14:38:05.183Z,3.04
2019-02-22T14:40:35.629Z,2.79
2019-02-22T14:43:16.179Z,2.71
2019-02-22T14:45:48.554Z,2.69
2019-02-22T14:48:10.418Z,2.63
2019-02-22T14:50:40.869Z,2.55
2019-02-22T14:53:19.041Z,2.50
2019-02-22T14:55:43.541Z,2.99
2019-02-22T14:58:14.123Z,3.01
2019-02-22T15:00:44.500Z,2.52
2019-02-22T15:03:14.899Z,2.31
2019-02-22T15:05:45.377Z,2.22
2019-02-22T15:08:15.857Z,2.15
2019-02-22T15:10:46.436Z,2.02
2019-02-22T15:13:17.028Z,1.95
2019-02-22T15:16:03.797Z,1.79
2019-02-22T15:18:33.600Z,1.58
2019-02-22T15:21:04.198Z,1.47
2019-02-22T15:23:34.741Z,1.35
2019-02-22T15:26:05.193Z,1.21
2019-02-22T15:28:35.738Z,1.11
2019-02-22T15:31:06.264Z,1.00
2019-02-22T15:33:36.674Z,0.90
2019-02-22T15:36:08.180Z,0.82
2019-02-22T15:38:38.653Z,0.73
2019-02-22T15:41:10.064Z,0.64
2019-02-22T15:43:41.733Z,0.54
2019-02-22T15:46:12.636Z,0.44
2019-02-22T15:48:43.135Z,0.36
2019-02-22T15:51:14.177Z,0.33
2019-02-22T15:53:44.657Z,0.26
2019-02-22T15:56:15.466Z,0.16
2019-02-22T15:58:45.877Z,0.13
2019-02-22T16:01:16.420Z,0.06
2019-02-22T16:03:57.672Z,-0.05
2019-02-22T16:06:28.059Z,-0.18
2019-02-22T16:09:00.422Z,-0.28
2019-02-22T16:11:32.620Z,-0.38
2019-02-22T16:14:02.968Z,-0.46
2019-02-22T16:16:33.563Z,-0.50
2019-02-22T16:19:04.149Z,-0.55
2019-02-22T16:21:34.631Z,-0.61
2019-02-22T16:24:04.998Z,-0.67
2019-02-22T16:26:35.474Z,-0.78
2019-02-22T16:29:05.887Z,-0.90
2019-02-22T16:31:36.352Z,-0.94
2019-02-22T16:34:06.776Z,-1.00
2019-02-22T16:36:37.224Z,-1.01
2019-02-22T16:39:07.714Z,-1.12
2019-02-22T16:41:39.706Z,-1.07
2019-02-22T16:44:10.224Z,-1.12
2019-02-22T16:46:40.750Z,-1.15
2019-02-22T16:49:11.192Z,-1.19
2019-02-22T16:51:41.716Z,-1.28
2019-02-22T16:54:12.076Z,-1.34
2019-02-22T16:56:42.494Z,-1.32
2019-02-22T16:59:15.110Z,-1.43
2019-02-22T17:01:45.032Z,-1.48
2019-02-22T17:04:15.375Z,-1.46
2019-02-22T17:06:45.782Z,-1.44
2019-02-22T17:09:16.267Z,-1.50
2019-02-22T17:11:46.703Z,-1.53
2019-02-22T17:14:17.404Z,-1.58
2019-02-22T17:16:48.021Z,-1.61
2019-02-22T17:19:18.482Z,-1.64
2019-02-22T17:21:49.040Z,-1.68
2019-02-22T17:24:19.470Z,-1.75
2019-02-22T17:26:49.870Z,-1.79
2019-02-22T17:29:20.224Z,-1.84
2019-02-22T17:31:50.681Z,-1.82
2019-02-22T17:34:21.098Z,-1.91
2019-02-22T17:36:51.630Z,-1.91
2019-02-22T17:39:21.978Z,-1.96
2019-02-22T17:41:52.524Z,-1.91
2019-02-22T17:44:22.937Z,-1.97
2019-02-22T17:46:57.744Z,-1.99
2019-02-22T17:49:25.518Z,-2.02
2019-02-22T17:51:55.962Z,-1.96
2019-02-22T17:54:26.384Z,-2.03
2019-02-22T17:56:56.865Z,-2.08
2019-02-22T17:59:27.297Z,-2.07
2019-02-22T18:01:57.749Z,-2.03
2019-02-22T18:04:28.175Z,-2.03
2019-02-22T18:06:58.574Z,-2.07
2019-02-22T18:09:28.979Z,-2.13
2019-02-22T18:11:59.362Z,-2.13
2019-02-22T18:14:30.775Z,-2.15
2019-02-22T18:17:08.533Z,-2.16
2019-02-22T18:19:33.282Z,-2.17
2019-02-22T18:22:03.757Z,-2.17
2019-02-22T18:24:34.166Z,-2.23
2019-02-22T18:27:04.620Z,-2.29
2019-02-22T18:29:35.793Z,-2.39
2019-02-22T18:32:06.443Z,-2.47
2019-02-22T18:34:36.880Z,-2.47
2019-02-22T18:37:08.438Z,-2.48
2019-02-22T18:39:38.797Z,-2.52
2019-02-22T18:42:09.381Z,-2.56
2019-02-22T18:44:39.813Z,-2.56
2019-02-22T18:47:18.968Z,-2.52
2019-02-22T18:49:42.459Z,-2.58
2019-02-22T18:52:13.010Z,-2.68
2019-02-22T18:54:46.092Z,-2.67
2019-02-22T18:57:16.111Z,-2.70
2019-02-22T18:59:46.466Z,-2.75
2019-02-22T19:02:17.070Z,-2.85
2019-02-22T19:04:47.519Z,-2.84
2019-02-22T19:07:18.032Z,-2.92
2019-02-22T19:09:48.465Z,-2.91
2019-02-22T19:12:18.940Z,-2.83
2019-02-22T19:14:49.375Z,-2.97
2019-02-22T19:17:29.921Z,-2.94
2019-02-22T19:19:52.005Z,-3.02
2019-02-22T19:22:22.484Z,-3.03
2019-02-22T19:24:52.903Z,-3.01
2019-02-22T19:27:23.327Z,-3.20
2019-02-22T19:29:53.753Z,-3.14
2019-02-22T19:32:24.230Z,-3.19
2019-02-22T19:34:54.728Z,-3.24
2019-02-22T19:37:25.154Z,-3.29
2019-02-22T19:39:55.638Z,-3.23
2019-02-22T19:42:26.034Z,-3.33
2019-02-22T19:44:56.381Z,-3.47
2019-02-22T19:47:27.099Z,-3.47
2019-02-22T19:49:57.531Z,-3.53
2019-02-22T19:52:27.934Z,-3.60
2019-02-22T19:54:58.361Z,-3.66
2019-02-22T19:57:29.177Z,-3.64
2019-02-22T19:59:59.550Z,-3.72
2019-02-22T20:02:30.111Z,-3.73
2019-02-22T20:05:00.582Z,-3.79
2019-02-22T20:07:31.056Z,-3.79
2019-02-22T20:10:01.489Z,-3.73
2019-02-22T20:12:33.727Z,-3.71
2019-02-22T20:15:05.821Z,-3.67
2019-02-22T20:17:37.399Z,-3.68
2019-02-22T20:20:12.983Z,-3.69
2019-02-22T20:22:43.466Z,-3.78
2019-02-22T20:25:13.909Z,-3.88
2019-02-22T20:27:44.468Z,-4.03
2019-02-22T20:30:19.057Z,-3.92
2019-02-22T20:32:49.516Z,-3.98
2019-02-22T20:35:27.798Z,-3.86
2019-02-22T20:37:58.292Z,-3.82
2019-02-22T20:40:28.719Z,-3.82
2019-02-22T20:42:59.207Z,-3.73
2019-02-22T20:45:29.630Z,-3.70
2019-02-22T20:48:05.081Z,-3.71
2019-02-22T20:50:32.164Z,-3.80
2019-02-22T20:53:02.630Z,-3.91
2019-02-22T20:55:33.061Z,-3.91
2019-02-22T20:58:03.903Z,-3.95
2019-02-22T21:00:34.346Z,-4.02
2019-02-22T21:03:04.879Z,-4.07
2019-02-22T21:05:35.386Z,-4.04
2019-02-22T21:08:05.852Z,-4.13
2019-02-22T21:10:36.348Z,-4.17
2019-02-22T21:13:06.834Z,-4.22
2019-02-22T21:15:37.298Z,-4.28
2019-02-22T21:18:15.853Z,-4.33
2019-02-22T21:20:39.851Z,-4.31
2019-02-22T21:23:10.587Z,-4.33
2019-02-22T21:25:41.034Z,-4.39
2019-02-22T21:28:11.437Z,-4.48
2019-02-22T21:30:41.859Z,-4.47
2019-02-22T21:33:12.317Z,-4.52
2019-02-22T21:35:42.736Z,-4.57
2019-02-22T21:38:13.241Z,-4.62
2019-02-22T21:40:43.686Z,-4.68
2019-02-22T21:43:14.214Z,-4.80
2019-02-22T21:45:45.629Z,-4.77
2019-02-22T21:48:26.951Z,-4.84
2019-02-22T21:50:48.178Z,-4.92
2019-02-22T21:53:18.638Z,-4.94
2019-02-22T21:55:48.991Z,-4.96
2019-02-22T21:58:19.844Z,-4.95
2019-02-22T22:00:50.269Z,-4.99
2019-02-22T22:03:21.847Z,-5.08
2019-02-22T22:05:52.201Z,-5.00
2019-02-22T22:08:22.699Z,-4.87
2019-02-22T22:10:53.045Z,-4.73
2019-02-22T22:13:23.502Z,-4.69
2019-02-22T22:15:53.864Z,-4.69
2019-02-22T22:18:24.247Z,-4.56
2019-02-22T22:20:54.613Z,-4.52
2019-02-22T22:23:25.003Z,-4.41
2019-02-22T22:25:55.357Z,-4.43
2019-02-22T22:28:25.745Z,-4.43
2019-02-22T22:30:56.098Z,-4.47
2019-02-22T22:33:26.565Z,-4.47
2019-02-22T22:35:58.072Z,-4.42
2019-02-22T22:38:28.726Z,-4.44
2019-02-22T22:40:59.139Z,-4.48
2019-02-22T22:43:29.785Z,-4.55
2019-02-22T22:46:00.295Z,-4.48
2019-02-22T22:48:30.881Z,-4.44
2019-02-22T22:51:01.309Z,-4.48
2019-02-22T22:53:31.765Z,-4.52
2019-02-22T22:56:02.178Z,-4.61
2019-02-22T22:58:32.942Z,-4.72
2019-02-22T23:01:05.543Z,-4.74
2019-02-22T23:03:36.471Z,-4.70
2019-02-22T23:06:07.041Z,-4.72
2019-02-22T23:08:37.504Z,-4.73
2019-02-22T23:11:07.912Z,-4.68
2019-02-22T23:13:38.660Z,-4.70
2019-02-22T23:16:09.214Z,-4.72
2019-02-22T23:18:39.757Z,-4.79
2019-02-22T23:21:10.245Z,-4.90
2019-02-22T23:23:40.734Z,-4.95
2019-02-22T23:26:11.157Z,-4.96
2019-02-22T23:28:41.767Z,-4.98
2019-02-22T23:31:13.184Z,-5.07
2019-02-22T23:33:43.802Z,-5.09
2019-02-22T23:36:14.161Z,-5.17
2019-02-22T23:38:44.621Z,-5.11
2019-02-22T23:41:15.048Z,-5.21
2019-02-22T23:43:45.526Z,-5.22
2019-02-22T23:46:15.896Z,-5.20
2019-02-22T23:48:46.303Z,-5.18
2019-02-22T23:51:16.800Z,-5.21
2019-02-22T23:53:47.212Z,-5.29
2019-02-22T23:56:17.643Z,-5.30
2019-02-22T23:58:48.507Z,-5.33
